createdAt,value
2024-02-09T00:00:24.415Z,10.53
2024-02-09T00:02:50.852Z,3.83
2024-02-09T00:05:18.504Z,11.70
2024-02-09T00:07:52.727Z,6.67
2024-02-09T00:10:20.097Z,5.40
2024-02-09T00:12:49.277Z,7.97
2024-02-09T00:15:19.342Z,6.07
2024-02-09T00:17:46.014Z,12.37
2024-02-09T00:20:13.212Z,9.63
2024-02-09T00:22:40.329Z,10.87
2024-02-09T00:25:11.320Z,13.57
2024-02-09T00:27:41.236Z,8.00
2024-02-09T00:30:11.795Z,15.47
2024-02-09T00:32:38.443Z,8.60
2024-02-09T00:35:05.526Z,3.47
2024-02-09T00:37:32.477Z,5.57
2024-02-09T00:39:59.103Z,9.17
2024-02-09T00:42:25.708Z,9.30
2024-02-09T00:44:52.097Z,9.87
2024-02-09T00:47:18.725Z,5.17
2024-02-09T00:49:46.530Z,16.30
2024-02-09T00:52:13.773Z,12.90
2024-02-09T00:54:40.472Z,16.43
2024-02-09T00:57:07.052Z,9.53
2024-02-09T00:59:34.655Z,7.57
2024-02-09T01:02:05.585Z,8.10
2024-02-09T01:04:36.798Z,6.10
2024-02-09T01:07:04.941Z,7.80
2024-02-09T01:09:34.839Z,4.60
2024-02-09T01:12:05.970Z,8.30
2024-02-09T01:14:50.762Z,12.50
2024-02-09T01:17:35.646Z,11.30
2024-02-09T01:20:20.445Z,7.00
2024-02-09T01:23:05.311Z,9.60
2024-02-09T01:25:50.187Z,7.90
2024-02-09T01:28:35.158Z,9.10
2024-02-09T01:31:20.117Z,10.50
2024-02-09T01:34:05.180Z,8.43
2024-02-09T01:36:50.436Z,9.03
2024-02-09T01:39:35.354Z,8.43
2024-02-09T01:42:20.882Z,6.40
2024-02-09T01:45:05.610Z,7.90
2024-02-09T01:47:51.089Z,7.93
2024-02-09T01:50:36.251Z,11.47
2024-02-09T01:53:21.727Z,8.73
2024-02-09T01:56:06.650Z,13.73
2024-02-09T01:58:51.663Z,8.00
2024-02-09T02:01:37.092Z,7.53
2024-02-09T02:04:22.315Z,7.17
2024-02-09T02:07:07.758Z,9.87
2024-02-09T02:09:52.567Z,10.03
2024-02-09T02:12:37.462Z,6.07
2024-02-09T02:15:22.831Z,5.83
2024-02-09T02:18:07.717Z,10.60
2024-02-09T02:20:53.046Z,9.43
2024-02-09T02:24:00.778Z,6.20
2024-02-09T02:26:45.612Z,9.77
2024-02-09T02:29:30.606Z,6.33
2024-02-09T02:32:15.407Z,7.07
2024-02-09T02:35:00.400Z,5.07
2024-02-09T02:37:45.637Z,6.13
2024-02-09T02:40:30.707Z,6.77
2024-02-09T02:42:57.424Z,9.17
2024-02-09T02:45:28.553Z,11.13
2024-02-09T02:48:13.826Z,7.60
2024-02-09T02:50:58.775Z,7.23
2024-02-09T02:53:43.656Z,5.97
2024-02-09T02:56:28.598Z,6.03
2024-02-09T02:59:13.496Z,6.90
2024-02-09T03:01:58.628Z,10.63
2024-02-09T03:04:25.331Z,10.17
2024-02-09T03:07:13.612Z,3.73
2024-02-09T03:09:38.496Z,7.47
2024-02-09T03:12:05.283Z,7.40
2024-02-09T03:14:31.806Z,9.97
2024-02-09T03:16:58.394Z,5.40
2024-02-09T03:19:24.978Z,8.63
2024-02-09T03:21:55.721Z,2.57
2024-02-09T03:24:22.398Z,10.67
2024-02-09T03:26:49.399Z,7.10
2024-02-09T03:29:15.893Z,3.67
2024-02-09T03:31:43.041Z,9.60
2024-02-09T03:34:09.928Z,7.07
2024-02-09T03:36:36.537Z,5.17
2024-02-09T03:39:03.306Z,4.13
2024-02-09T03:41:29.887Z,5.37
2024-02-09T03:44:06.038Z,6.90
2024-02-09T03:46:33.979Z,7.10
2024-02-09T03:49:00.846Z,6.93
2024-02-09T03:51:27.648Z,5.23
2024-02-09T03:53:54.106Z,4.20
2024-02-09T03:56:20.975Z,3.33
2024-02-09T03:58:47.903Z,3.60
2024-02-09T04:01:16.623Z,5.33
2024-02-09T04:03:43.501Z,5.13
2024-02-09T04:06:10.251Z,5.20
2024-02-09T04:08:37.165Z,2.27
2024-02-09T04:11:03.892Z,11.70
2024-02-09T04:13:30.644Z,4.60
2024-02-09T04:16:01.329Z,2.17
2024-02-09T04:18:30.453Z,2.93
2024-02-09T04:20:57.453Z,3.83
2024-02-09T04:23:24.164Z,6.73
2024-02-09T04:25:50.700Z,7.83
2024-02-09T04:28:18.899Z,2.70
2024-02-09T04:30:47.414Z,7.03
2024-02-09T04:33:16.771Z,6.23
2024-02-09T04:35:43.634Z,3.73
2024-02-09T04:38:10.316Z,5.03
2024-02-09T04:40:37.454Z,3.53
2024-02-09T04:43:06.379Z,3.67
2024-02-09T04:45:33.303Z,6.83
2024-02-09T04:48:00.017Z,3.03
2024-02-09T04:50:26.721Z,5.60
2024-02-09T04:52:53.388Z,1.63
2024-02-09T04:55:19.955Z,4.07
2024-02-09T04:57:46.776Z,3.20
2024-02-09T05:00:13.717Z,2.93
2024-02-09T05:02:45.646Z,5.20
2024-02-09T05:05:13.227Z,6.37
2024-02-09T05:07:40.049Z,3.80
2024-02-09T05:10:06.946Z,2.70
2024-02-09T05:12:33.641Z,2.83
2024-02-09T05:15:00.465Z,5.13
2024-02-09T05:17:27.371Z,6.00
2024-02-09T05:19:58.628Z,6.77
2024-02-09T05:22:26.219Z,5.97
2024-02-09T05:24:52.945Z,5.17
2024-02-09T05:27:22.104Z,2.30
2024-02-09T05:29:49.229Z,5.07
2024-02-09T05:32:16.080Z,3.13
2024-02-09T05:34:47.456Z,1.50
2024-02-09T05:37:15.298Z,1.77
2024-02-09T05:39:44.179Z,1.43
2024-02-09T05:42:10.783Z,3.43
2024-02-09T05:44:37.464Z,2.80
2024-02-09T05:47:04.409Z,1.50
2024-02-09T05:49:31.070Z,2.30
2024-02-09T05:51:58.059Z,4.63
2024-02-09T05:54:24.737Z,5.70
2024-02-09T05:56:51.275Z,4.03
2024-02-09T05:59:17.881Z,1.37
2024-02-09T06:04:32.240Z,1.10
2024-02-09T06:06:58.912Z,4.13
2024-02-09T06:09:25.788Z,2.57
2024-02-09T06:11:52.398Z,2.30
2024-02-09T06:14:18.950Z,0.97
2024-02-09T06:16:48.591Z,1.47
2024-02-09T06:19:15.256Z,0.87
2024-02-09T06:21:42.124Z,0.97
2024-02-09T06:24:08.695Z,1.63
2024-02-09T06:26:35.609Z,1.00
2024-02-09T06:29:04.768Z,2.20
2024-02-09T06:31:31.465Z,1.10
2024-02-09T06:34:00.348Z,0.93
2024-02-09T06:36:27.467Z,3.23
2024-02-09T06:38:55.085Z,1.10
2024-02-09T06:41:22.253Z,1.57
2024-02-09T06:43:49.292Z,1.83
2024-02-09T06:46:19.022Z,3.13
2024-02-09T06:48:47.676Z,1.00
2024-02-09T06:51:19.877Z,1.73
2024-02-09T06:53:46.318Z,1.03
2024-02-09T06:56:13.231Z,1.47
2024-02-09T06:58:41.109Z,1.23
2024-02-09T07:01:12.756Z,0.80
2024-02-09T07:03:40.559Z,1.00
2024-02-09T07:06:09.032Z,3.03
2024-02-09T07:08:41.262Z,4.20
2024-02-09T07:11:15.291Z,1.40
2024-02-09T07:13:43.445Z,2.37
2024-02-09T07:16:10.684Z,2.07
2024-02-09T07:18:42.129Z,4.10
2024-02-09T07:21:10.939Z,1.47
2024-02-09T07:23:37.855Z,1.23
2024-02-09T07:26:06.189Z,1.50
2024-02-09T07:28:33.512Z,1.03
2024-02-09T07:31:00.236Z,0.90
2024-02-09T07:33:27.433Z,2.77
2024-02-09T07:35:54.029Z,1.17
2024-02-09T07:38:20.514Z,0.80
2024-02-09T07:40:48.095Z,1.53
2024-02-09T07:43:15.311Z,1.00
2024-02-09T07:45:41.940Z,2.13
2024-02-09T07:48:08.902Z,0.90
2024-02-09T07:50:43.009Z,1.20
2024-02-09T07:53:09.925Z,0.70
2024-02-09T07:55:36.530Z,1.00
2024-02-09T07:58:03.232Z,1.00
2024-02-09T08:00:30.184Z,0.80
2024-02-09T08:02:56.644Z,0.87
2024-02-09T08:05:23.162Z,2.60
2024-02-09T08:07:50.035Z,0.80
2024-02-09T08:10:18.430Z,1.43
2024-02-09T08:12:45.874Z,2.00
2024-02-09T08:15:12.875Z,1.57
2024-02-09T08:17:40.537Z,3.80
2024-02-09T08:20:08.041Z,1.77
2024-02-09T08:22:35.608Z,1.13
2024-02-09T08:25:03.146Z,1.00
2024-02-09T08:27:29.762Z,1.20
2024-02-09T08:29:58.787Z,1.27
2024-02-09T08:32:25.440Z,1.40
2024-02-09T08:34:52.093Z,1.73
2024-02-09T08:37:20.449Z,2.33
2024-02-09T08:39:47.908Z,1.23
2024-02-09T08:42:14.808Z,1.63
2024-02-09T08:44:42.062Z,1.30
2024-02-09T08:47:12.042Z,1.20
2024-02-09T08:49:38.854Z,1.63
2024-02-09T08:52:07.025Z,2.67
2024-02-09T08:54:36.721Z,1.13
2024-02-09T08:57:03.379Z,3.67
2024-02-09T08:59:29.862Z,0.97
2024-02-09T09:01:56.591Z,2.47
2024-02-09T09:04:23.318Z,2.10
2024-02-09T09:06:49.959Z,2.87
2024-02-09T09:09:16.667Z,1.53
2024-02-09T09:11:43.575Z,1.80
2024-02-09T09:14:11.981Z,1.20
2024-02-09T09:16:39.762Z,1.67
2024-02-09T09:19:09.989Z,2.07
2024-02-09T09:21:39.464Z,2.60
2024-02-09T09:24:06.994Z,4.33
2024-02-09T09:26:33.667Z,5.57
2024-02-09T09:29:01.440Z,3.43
2024-02-09T09:31:31.137Z,3.03
2024-02-09T09:33:58.135Z,3.77
2024-02-09T09:36:32.221Z,1.50
2024-02-09T09:39:06.851Z,5.50
2024-02-09T09:41:42.194Z,1.50
2024-02-09T09:44:09.002Z,2.50
2024-02-09T09:46:41.003Z,3.23
2024-02-09T09:49:10.274Z,1.33
2024-02-09T09:51:38.337Z,4.10
2024-02-09T09:54:09.185Z,1.50
2024-02-09T09:56:37.736Z,1.30
2024-02-09T09:59:05.233Z,2.33
2024-02-09T10:01:32.205Z,2.03
2024-02-09T10:03:58.918Z,1.83
2024-02-09T10:06:25.834Z,2.00
2024-02-09T10:08:53.246Z,1.50
2024-02-09T10:11:19.877Z,1.33
2024-02-09T10:13:46.336Z,2.00
2024-02-09T10:16:12.943Z,1.97
2024-02-09T10:18:39.895Z,3.50
2024-02-09T10:21:09.852Z,2.27
2024-02-09T10:23:37.666Z,5.70
2024-02-09T10:26:06.492Z,1.90
2024-02-09T10:28:34.682Z,1.40
2024-02-09T10:31:01.976Z,3.10
2024-02-09T10:33:28.806Z,3.30
2024-02-09T10:35:56.675Z,4.43
2024-02-09T10:38:28.292Z,1.50
2024-02-09T10:40:56.306Z,1.00
2024-02-09T10:43:28.628Z,1.30
2024-02-09T10:45:58.356Z,1.50
2024-02-09T10:48:39.554Z,1.20
2024-02-09T10:51:08.702Z,1.13
2024-02-09T10:53:38.412Z,2.43
2024-02-09T10:56:08.152Z,5.30
2024-02-09T10:58:35.278Z,4.10
2024-02-09T11:01:06.316Z,2.33
2024-02-09T11:03:33.630Z,1.13
2024-02-09T11:06:06.012Z,1.70
2024-02-09T11:08:34.569Z,4.00
2024-02-09T11:11:05.714Z,1.23
2024-02-09T11:16:11.005Z,0.77
2024-02-09T11:18:38.595Z,1.10
2024-02-09T11:21:12.732Z,3.00
2024-02-09T11:23:43.634Z,2.60
2024-02-09T11:26:17.015Z,1.00
2024-02-09T11:28:44.250Z,0.93
2024-02-09T11:31:12.409Z,2.27
2024-02-09T11:33:43.617Z,1.30
2024-02-09T11:36:10.197Z,4.53
2024-02-09T11:38:36.854Z,2.37
2024-02-09T11:41:03.383Z,4.17
2024-02-09T11:43:32.507Z,2.97
2024-02-09T11:45:59.502Z,3.70
2024-02-09T11:48:26.098Z,2.43
2024-02-09T11:50:54.690Z,4.13
2024-02-09T11:53:21.458Z,1.87
2024-02-09T11:55:48.359Z,2.87
2024-02-09T11:58:15.350Z,1.43
2024-02-09T12:00:42.809Z,0.97
2024-02-09T12:03:14.289Z,1.77
2024-02-09T12:05:44.138Z,4.07
2024-02-09T12:08:10.719Z,1.23
2024-02-09T12:10:37.458Z,0.87
2024-02-09T12:13:06.337Z,1.50
2024-02-09T12:15:32.879Z,4.27
2024-02-09T12:18:03.445Z,2.97
2024-02-09T12:20:30.377Z,1.30
2024-02-09T12:23:01.676Z,2.03
2024-02-09T12:25:28.284Z,0.90
2024-02-09T12:27:59.678Z,1.53
2024-02-09T12:30:29.554Z,2.40
2024-02-09T12:33:01.028Z,2.47
2024-02-09T12:35:32.057Z,0.90
2024-02-09T12:37:58.804Z,1.13
2024-02-09T12:40:26.559Z,3.37
2024-02-09T12:42:56.904Z,3.50
2024-02-09T12:45:29.518Z,1.13
2024-02-09T12:47:58.570Z,1.47
2024-02-09T12:50:28.530Z,1.33
2024-02-09T12:52:55.768Z,1.20
2024-02-09T12:55:22.814Z,1.20
2024-02-09T12:57:50.731Z,2.30
2024-02-09T13:00:17.596Z,1.50
2024-02-09T13:02:44.307Z,2.60
2024-02-09T13:05:11.070Z,1.40
2024-02-09T13:07:38.244Z,2.47
2024-02-09T13:10:05.409Z,1.80
2024-02-09T13:12:38.924Z,1.57
2024-02-09T13:15:09.243Z,1.37
2024-02-09T13:17:36.459Z,3.40
2024-02-09T13:20:07.986Z,4.20
2024-02-09T13:22:35.033Z,1.23
2024-02-09T13:25:01.652Z,1.80
2024-02-09T13:27:30.601Z,1.40
2024-02-09T13:29:59.951Z,3.20
2024-02-09T13:32:28.233Z,5.20
2024-02-09T13:34:55.630Z,3.43
2024-02-09T13:37:22.666Z,2.07
2024-02-09T13:39:49.113Z,1.47
2024-02-09T13:42:16.926Z,1.33
2024-02-09T13:44:43.364Z,2.83
2024-02-09T13:47:09.882Z,3.17
2024-02-09T13:49:36.429Z,1.40
2024-02-09T13:52:05.057Z,4.37
2024-02-09T13:54:33.104Z,2.83
2024-02-09T13:56:59.650Z,2.30
2024-02-09T13:59:28.491Z,1.93
2024-02-09T14:01:55.074Z,4.10
2024-02-09T14:04:22.614Z,1.63
2024-02-09T14:06:49.352Z,3.70
2024-02-09T14:09:15.943Z,1.40
2024-02-09T14:11:45.951Z,2.00
2024-02-09T14:14:13.276Z,3.03
2024-02-09T14:16:39.798Z,4.03
2024-02-09T14:19:06.357Z,2.10
2024-02-09T14:21:33.441Z,2.40
2024-02-09T14:24:00.469Z,1.73
2024-02-09T14:26:27.134Z,1.90
2024-02-09T14:28:58.298Z,1.40
2024-02-09T14:31:25.169Z,1.47
2024-02-09T14:33:51.680Z,1.70
2024-02-09T14:36:18.922Z,1.53
2024-02-09T14:38:45.673Z,2.60
2024-02-09T14:41:12.221Z,1.77
2024-02-09T14:43:41.126Z,5.40
2024-02-09T14:46:07.699Z,2.50
2024-02-09T14:48:34.187Z,4.73
2024-02-09T14:51:02.780Z,4.90
2024-02-09T14:53:29.315Z,2.00
2024-02-09T14:55:57.376Z,4.27
2024-02-09T14:58:24.991Z,2.17
2024-02-09T15:00:55.951Z,3.00
2024-02-09T15:03:24.046Z,2.90
2024-02-09T15:05:51.102Z,3.57
2024-02-09T15:08:21.466Z,7.80
2024-02-09T15:10:48.233Z,3.20
2024-02-09T15:13:15.001Z,3.70
2024-02-09T15:15:43.908Z,2.20
2024-02-09T15:18:10.647Z,1.73
2024-02-09T15:20:38.474Z,2.27
2024-02-09T15:23:06.244Z,2.47
2024-02-09T15:25:34.904Z,2.77
2024-02-09T15:28:02.285Z,3.90
2024-02-09T15:30:29.064Z,4.07
2024-02-09T15:32:55.669Z,2.07
2024-02-09T15:35:22.279Z,2.40
2024-02-09T15:37:48.885Z,4.53
2024-02-09T15:40:16.886Z,1.50
2024-02-09T15:42:44.142Z,4.93
2024-02-09T15:45:12.843Z,3.10
2024-02-09T15:47:39.395Z,2.57
2024-02-09T15:50:08.435Z,5.33
2024-02-09T15:52:35.411Z,9.03
2024-02-09T15:55:02.298Z,5.73
2024-02-09T15:57:30.475Z,4.20
2024-02-09T15:59:56.900Z,4.43
2024-02-09T16:02:23.689Z,6.07
2024-02-09T16:04:50.934Z,5.83
2024-02-09T16:07:17.862Z,5.57
2024-02-09T16:09:47.338Z,3.80
2024-02-09T16:12:14.039Z,2.90
2024-02-09T16:14:42.341Z,3.07
2024-02-09T16:17:08.864Z,3.47
2024-02-09T16:19:35.883Z,3.73
2024-02-09T16:22:02.498Z,3.87
2024-02-09T16:24:28.913Z,4.90
2024-02-09T16:26:55.524Z,6.07
2024-02-09T16:29:21.963Z,4.60
2024-02-09T16:31:49.627Z,2.93
2024-02-09T16:34:16.347Z,7.37
2024-02-09T16:36:42.895Z,5.73
2024-02-09T16:39:09.585Z,7.23
2024-02-09T16:41:36.195Z,4.27
2024-02-09T16:44:04.251Z,5.37
2024-02-09T16:46:31.616Z,5.00
2024-02-09T16:48:58.790Z,8.23
2024-02-09T16:51:25.650Z,2.53
2024-02-09T16:53:52.160Z,4.63
2024-02-09T16:59:02.749Z,3.27
2024-02-09T17:01:29.364Z,3.47
2024-02-09T17:03:56.032Z,3.30
2024-02-09T17:06:22.845Z,4.43
2024-02-09T17:08:49.348Z,4.13
2024-02-09T17:11:15.969Z,6.03
2024-02-09T17:13:42.517Z,3.07
2024-02-09T17:16:09.096Z,7.10
2024-02-09T17:18:36.163Z,5.23
2024-02-09T17:21:02.739Z,6.47
2024-02-09T17:23:29.311Z,3.13
2024-02-09T17:25:55.867Z,5.63
2024-02-09T17:28:22.547Z,4.10
2024-02-09T17:30:49.185Z,3.30
2024-02-09T17:33:15.939Z,5.70
2024-02-09T17:35:42.821Z,5.20
2024-02-09T17:38:10.197Z,7.03
2024-02-09T17:40:36.863Z,6.37
2024-02-09T17:43:03.513Z,3.97
2024-02-09T17:45:30.078Z,4.80
2024-02-09T17:47:56.637Z,6.60
2024-02-09T17:50:23.359Z,3.43
2024-02-09T17:52:53.634Z,5.07
2024-02-09T17:55:20.925Z,7.60
2024-02-09T17:57:50.826Z,5.47
2024-02-09T18:00:18.352Z,4.33
2024-02-09T18:02:45.037Z,7.20
2024-02-09T18:05:12.285Z,3.87
2024-02-09T18:07:40.136Z,5.67
2024-02-09T18:10:06.860Z,5.87
2024-02-09T18:12:33.616Z,6.67
2024-02-09T18:15:00.091Z,11.00
2024-02-09T18:17:27.364Z,4.73
2024-02-09T18:19:53.922Z,4.63
2024-02-09T18:22:20.670Z,5.10
2024-02-09T18:24:48.315Z,7.33
2024-02-09T18:27:15.359Z,5.80
2024-02-09T18:29:41.861Z,4.37
2024-02-09T18:32:08.656Z,6.67
2024-02-09T18:34:36.446Z,3.90
2024-02-09T18:37:03.180Z,3.37
2024-02-09T18:39:29.622Z,4.03
2024-02-09T18:41:56.165Z,3.43
2024-02-09T18:44:22.856Z,3.37
2024-02-09T18:46:54.434Z,4.37
2024-02-09T18:49:24.981Z,3.47
2024-02-09T18:51:52.534Z,4.10
2024-02-09T18:54:19.268Z,5.30
2024-02-09T18:56:46.122Z,2.97
2024-02-09T18:59:12.879Z,5.57
2024-02-09T19:01:44.500Z,5.30
2024-02-09T19:04:14.018Z,4.50
2024-02-09T19:06:42.400Z,5.70
2024-02-09T19:09:12.728Z,3.90
2024-02-09T19:11:39.743Z,3.80
2024-02-09T19:14:06.349Z,8.43
2024-02-09T19:16:33.608Z,3.80
2024-02-09T19:19:02.712Z,4.50
2024-02-09T19:21:30.831Z,7.53
2024-02-09T19:23:58.318Z,3.50
2024-02-09T19:26:26.195Z,3.53
2024-02-09T19:28:53.332Z,4.20
2024-02-09T19:31:20.762Z,6.03
2024-02-09T19:33:48.523Z,6.27
2024-02-09T19:36:20.786Z,3.53
2024-02-09T19:38:48.163Z,6.47
2024-02-09T19:41:16.324Z,4.67
2024-02-09T19:43:44.003Z,3.63
2024-02-09T19:46:11.300Z,3.93
2024-02-09T19:48:38.006Z,8.90
2024-02-09T19:51:05.540Z,5.47
2024-02-09T19:53:31.964Z,3.63
2024-02-09T19:55:58.835Z,5.03
2024-02-09T19:58:25.468Z,4.77
2024-02-09T20:00:52.600Z,5.10
2024-02-09T20:03:22.016Z,6.07
2024-02-09T20:05:50.174Z,4.80
2024-02-09T20:08:22.752Z,4.23
2024-02-09T20:10:49.628Z,8.10
2024-02-09T20:13:18.262Z,3.83
2024-02-09T20:15:44.989Z,5.87
2024-02-09T20:18:11.521Z,4.27
2024-02-09T20:20:39.415Z,3.70
2024-02-09T20:23:06.327Z,3.27
2024-02-09T20:25:33.155Z,4.93
2024-02-09T20:27:59.679Z,4.27
2024-02-09T20:30:26.544Z,4.50
2024-02-09T20:32:54.041Z,3.70
2024-02-09T20:35:20.744Z,3.83
2024-02-09T20:37:47.452Z,4.83
2024-02-09T20:40:16.467Z,3.57
2024-02-09T20:42:44.238Z,4.37
2024-02-09T20:45:12.633Z,4.17
2024-02-09T20:47:48.646Z,5.40
2024-02-09T20:50:19.114Z,4.60
2024-02-09T20:52:50.816Z,4.87
2024-02-09T20:55:21.560Z,3.97
2024-02-09T20:57:49.367Z,8.10
2024-02-09T21:00:20.872Z,5.67
2024-02-09T21:02:50.754Z,9.17
2024-02-09T21:05:20.646Z,5.33
2024-02-09T21:07:48.728Z,4.50
2024-02-09T21:10:17.104Z,4.77
2024-02-09T21:12:47.874Z,4.23
2024-02-09T21:15:15.157Z,4.90
2024-02-09T21:17:42.381Z,6.83
2024-02-09T21:20:11.240Z,5.47
2024-02-09T21:22:39.261Z,4.30
2024-02-09T21:25:07.610Z,5.30
2024-02-09T21:27:34.145Z,9.37
2024-02-09T21:30:05.688Z,5.37
2024-02-09T21:32:32.985Z,5.17
2024-02-09T21:34:59.489Z,5.30
2024-02-09T21:37:27.331Z,5.77
2024-02-09T21:39:57.175Z,6.67
2024-02-09T21:42:27.856Z,7.43
2024-02-09T21:45:00.299Z,5.30
2024-02-09T21:47:30.216Z,5.63
2024-02-09T21:49:58.541Z,10.30
2024-02-09T21:52:25.119Z,7.70
2024-02-09T21:54:52.795Z,9.63
2024-02-09T21:57:22.145Z,7.77
2024-02-09T21:59:48.609Z,7.37
2024-02-09T22:02:20.591Z,5.80
2024-02-09T22:04:47.951Z,6.80
2024-02-09T22:07:14.545Z,8.50
2024-02-09T22:09:41.664Z,10.27
2024-02-09T22:12:08.402Z,7.80
2024-02-09T22:14:36.760Z,7.23
2024-02-09T22:17:07.776Z,7.67
2024-02-09T22:19:35.481Z,7.03
2024-02-09T22:22:02.731Z,6.97
2024-02-09T22:24:29.328Z,7.33
2024-02-09T22:26:58.919Z,6.93
2024-02-09T22:29:26.177Z,8.30
2024-02-09T22:31:52.753Z,7.93
2024-02-09T22:34:21.562Z,7.20
2024-02-09T22:36:48.266Z,6.53
2024-02-09T22:39:14.727Z,8.80
2024-02-09T22:41:48.403Z,6.27
2024-02-09T22:44:19.982Z,8.27
2024-02-09T22:46:52.242Z,8.17
2024-02-09T22:49:18.762Z,9.10
2024-02-09T22:51:45.230Z,9.07
2024-02-09T22:54:11.709Z,5.77
2024-02-09T22:56:40.752Z,6.73
2024-02-09T22:59:07.212Z,6.23
2024-02-09T23:01:33.708Z,6.10
2024-02-09T23:04:00.919Z,6.70
2024-02-09T23:06:30.952Z,6.73
2024-02-09T23:08:58.223Z,6.43
2024-02-09T23:11:25.855Z,9.17
2024-02-09T23:13:53.008Z,11.53
2024-02-09T23:16:19.726Z,7.43
2024-02-09T23:18:46.283Z,6.70
2024-02-09T23:21:12.833Z,6.13
2024-02-09T23:23:40.888Z,11.20
2024-02-09T23:26:11.385Z,9.43
2024-02-09T23:28:37.952Z,9.63
2024-02-09T23:31:04.840Z,8.67
2024-02-09T23:33:31.463Z,8.67
2024-02-09T23:35:58.926Z,12.63
2024-02-09T23:38:25.851Z,11.33
2024-02-09T23:40:55.305Z,10.23
2024-02-09T23:43:23.017Z,9.43
2024-02-09T23:45:52.809Z,7.63
2024-02-09T23:48:21.401Z,9.57
2024-02-09T23:50:49.322Z,7.90
2024-02-09T23:53:17.746Z,10.30
2024-02-09T23:55:45.142Z,7.93
2024-02-09T23:58:12.280Z,8.23
